Terminal Aerodrome Forecast
Issued by NWS

Current Version | Previous Version | Graphics & Text | Print | Product List | Glossary On
Versions: 1 2 3 4 5 6 7 8 9 10 11 12 13 14 15
923
FTUS41 KPBZ 162324
TAFHLG
TAF
KHLG 162324Z 1700/1724 VRB03KT P6SM SCT060
      TEMPO 1710/1712 5SM BR
     FM171200 18005KT P6SM BKN100
     FM171700 20005KT P6SM VCSH BKN050
     FM172000 18005KT P6SM VCTS BKN035CB=

USA.gov is the U.S. government's official web portal to all federal, state and local government web resources and services.